Time;durP1;ratioP1;P1;durP2;ratioP2;P2;SDS_P1;SDS_P2;PMS_P1;PMS_P2;Temp;Humidity;BMP_temperature;BMP_pressure;BME280_temperature;BME280_humidity;BME280_pressure;Samples;Min_cycle;Max_cycle;Signal;HPM_P1;HPM_P2
2022/05/05 00:02:04;;;;;;;15.80;5.43;;;8.90;99.90;;;;;;5091957;28;20495;-66
2022/05/05 00:04:29;;;;;;;12.75;4.55;;;9.00;99.90;;;;;;5111090;28;20054;-66
2022/05/05 00:06:55;;;;;;;7.72;4.28;;;9.00;99.90;;;;;;5110137;28;20035;-67
2022/05/05 00:09:20;;;;;;;8.75;4.70;;;8.90;99.90;;;;;;5110389;28;20042;-65
2022/05/05 00:14:33;;;;;;;12.40;5.03;;;8.80;99.90;;;;;;5110672;28;20130;-65
2022/05/05 00:17:01;;;;;;;13.98;4.65;;;8.80;99.90;;;;;;5110583;28;20411;-66
2022/05/05 00:19:29;;;;;;;15.68;5.95;;;8.80;99.90;;;;;;5110617;28;20664;-66
2022/05/05 00:21:55;;;;;;;9.73;5.03;;;8.70;99.90;;;;;;5110139;28;20035;-65
2022/05/05 00:24:21;;;;;;;9.65;5.05;;;8.70;99.90;;;;;;5092750;28;20095;-66
2022/05/05 00:26:47;;;;;;;13.50;5.07;;;8.70;99.90;;;;;;5110342;28;20031;-66
2022/05/05 00:29:13;;;;;;;8.60;4.80;;;8.60;99.90;;;;;;5109976;28;20043;-66
2022/05/05 00:31:39;;;;;;;9.98;4.88;;;8.70;99.90;;;;;;5111087;28;20122;-66
2022/05/05 00:34:05;;;;;;;10.20;4.88;;;8.70;99.90;;;;;;5110100;28;20038;-66
2022/05/05 00:36:30;;;;;;;10.35;5.63;;;8.70;99.90;;;;;;5111016;28;20036;-66
2022/05/05 00:38:56;;;;;;;12.65;5.22;;;8.70;99.90;;;;;;5110935;28;20071;-66
2022/05/05 00:41:22;;;;;;;9.70;5.30;;;8.70;99.90;;;;;;5111314;28;20039;-65
2022/05/05 00:43:48;;;;;;;16.90;5.78;;;8.70;99.90;;;;;;5110733;28;20496;-66
2022/05/05 00:46:13;;;;;;;10.25;5.68;;;8.70;99.90;;;;;;5109585;28;20035;-65
2022/05/05 00:48:42;;;;;;;14.07;5.65;;;8.60;99.90;;;;;;5091956;28;20127;-66
2022/05/05 00:51:08;;;;;;;12.45;5.47;;;8.60;99.90;;;;;;5110865;28;20127;-66
2022/05/05 00:53:34;;;;;;;8.90;5.32;;;8.60;99.90;;;;;;5111340;28;20131;-65
2022/05/05 00:56:04;;;;;;;12.10;5.68;;;8.60;99.90;;;;;;5111075;28;20032;-65
2022/05/05 00:58:30;;;;;;;12.90;5.40;;;8.50;99.90;;;;;;5110859;28;20047;-67
2022/05/05 01:00:57;;;;;;;12.45;5.63;;;8.50;99.90;;;;;;5109915;28;20113;-65
2022/05/05 01:03:24;;;;;;;20.63;6.03;;;8.40;99.90;;;;;;5110701;28;20047;-66
2022/05/05 01:05:50;;;;;;;10.68;5.10;;;8.40;99.90;;;;;;5110851;28;20453;-65
2022/05/05 01:08:15;;;;;;;11.07;5.90;;;8.40;99.90;;;;;;5111055;28;20050;-65
2022/05/05 01:10:41;;;;;;;9.18;5.82;;;8.40;99.90;;;;;;5110518;28;20035;-65
2022/05/05 01:13:06;;;;;;;11.13;5.60;;;8.40;99.90;;;;;;5114385;28;20079;-66
2022/05/05 01:15:36;;;;;;;10.30;5.47;;;8.30;99.90;;;;;;5114735;28;20043;-65
2022/05/05 01:18:01;;;;;;;23.00;7.95;;;8.30;99.90;;;;;;5114204;28;20039;-67
2022/05/05 01:20:27;;;;;;;9.90;5.47;;;8.30;99.90;;;;;;5114579;28;20048;-65
2022/05/05 01:22:53;;;;;;;13.18;5.85;;;8.20;99.90;;;;;;5114221;28;20035;-67
2022/05/05 01:28:13;;;;;;;12.48;6.38;;;8.20;99.90;;;;;;5113312;28;20101;-67
2022/05/05 01:30:43;;;;;;;13.05;6.90;;;8.30;99.90;;;;;;5114211;28;20498;-66
2022/05/05 01:33:16;;;;;;;7.00;5.53;;;8.30;99.90;;;;;;5114436;28;20054;-67
2022/05/05 01:35:43;;;;;;;11.25;5.82;;;8.30;99.90;;;;;;5114300;28;20031;-65
2022/05/05 01:38:11;;;;;;;14.23;6.15;;;8.30;99.90;;;;;;5114203;28;20041;-65
2022/05/05 01:40:37;;;;;;;9.82;6.85;;;8.20;99.90;;;;;;5114389;28;20139;-65
2022/05/05 01:43:06;;;;;;;9.15;5.28;;;8.20;99.90;;;;;;5114232;28;20052;-66
2022/05/05 01:45:32;;;;;;;12.68;6.55;;;8.20;99.90;;;;;;5114377;28;20043;-66
2022/05/05 01:47:58;;;;;;;13.85;5.97;;;8.20;99.90;;;;;;5114096;28;20423;-65
2022/05/05 01:50:25;;;;;;;8.93;5.70;;;8.20;99.90;;;;;;5113784;28;20046;-66
2022/05/05 01:52:52;;;;;;;11.70;6.50;;;8.10;99.90;;;;;;5113849;28;20074;-65
2022/05/05 01:55:17;;;;;;;12.60;6.80;;;8.10;99.90;;;;;;5114274;28;20044;-65
2022/05/05 01:57:43;;;;;;;12.38;6.07;;;8.10;99.90;;;;;;5113829;28;20132;-65
2022/05/05 02:00:09;;;;;;;11.73;6.85;;;8.10;99.90;;;;;;5113188;28;20694;-66
2022/05/05 02:02:34;;;;;;;12.07;5.93;;;8.10;99.90;;;;;;5113137;28;20054;-66
2022/05/05 02:05:00;;;;;;;13.18;6.47;;;8.10;99.90;;;;;;5113820;28;20044;-65
2022/05/05 02:07:25;;;;;;;13.27;6.85;;;8.10;99.90;;;;;;5095403;28;20035;-65
2022/05/05 02:09:51;;;;;;;10.73;6.53;;;8.00;99.90;;;;;;5113452;28;20032;-66
2022/05/05 02:12:16;;;;;;;18.30;6.88;;;8.00;99.90;;;;;;5113896;28;20040;-66
2022/05/05 02:14:42;;;;;;;9.52;6.50;;;8.00;99.90;;;;;;5113731;28;20047;-67
2022/05/05 02:17:10;;;;;;;11.68;6.45;;;8.00;99.90;;;;;;5113634;28;20039;-65
2022/05/05 02:19:35;;;;;;;15.02;7.28;;;8.00;99.90;;;;;;5094841;28;20114;-65
2022/05/05 02:22:02;;;;;;;15.23;6.72;;;8.00;99.90;;;;;;5113400;28;20447;-66
2022/05/05 02:24:28;;;;;;;13.73;6.55;;;7.90;99.90;;;;;;5111733;28;20044;-66
2022/05/05 02:26:53;;;;;;;11.48;6.20;;;7.90;99.90;;;;;;5113121;28;20039;-65
2022/05/05 02:29:19;;;;;;;10.82;6.25;;;7.90;99.90;;;;;;5113121;28;20464;-65
2022/05/05 02:31:44;;;;;;;13.25;6.68;;;7.80;99.90;;;;;;5112267;28;20426;-67
2022/05/05 02:34:10;;;;;;;15.82;6.85;;;7.80;99.90;;;;;;5113322;28;20039;-66
2022/05/05 02:39:21;;;;;;;18.25;6.93;;;7.60;99.90;;;;;;5113077;28;20103;-65
2022/05/05 02:41:46;;;;;;;12.93;7.10;;;7.70;99.90;;;;;;5113710;28;20394;-65
2022/05/05 02:44:12;;;;;;;14.50;6.95;;;7.70;99.90;;;;;;5113752;28;20036;-66
2022/05/05 02:46:37;;;;;;;11.48;7.68;;;7.60;99.90;;;;;;5113174;28;20046;-66
2022/05/05 02:49:03;;;;;;;15.48;7.13;;;7.60;99.90;;;;;;5113185;28;20039;-66
2022/05/05 02:51:28;;;;;;;16.25;7.00;;;7.60;99.90;;;;;;5113404;28;20130;-65
2022/05/05 02:56:38;;;;;;;19.80;7.32;;;7.50;99.90;;;;;;5112173;28;20035;-66
2022/05/05 02:59:04;;;;;;;18.38;7.97;;;7.50;99.90;;;;;;5111810;28;20042;-66
2022/05/05 03:01:29;;;;;;;14.95;7.55;;;7.50;99.90;;;;;;5112552;28;20039;-66
2022/05/05 03:03:55;;;;;;;13.70;7.25;;;7.50;99.90;;;;;;5094456;28;20495;-65
2022/05/05 03:06:20;;;;;;;12.57;7.15;;;7.40;99.90;;;;;;5112604;28;20042;-65
2022/05/05 03:08:46;;;;;;;13.35;7.50;;;7.40;99.90;;;;;;5112391;28;20031;-65
2022/05/05 03:11:12;;;;;;;15.70;7.90;;;7.40;99.90;;;;;;5112654;28;20085;-66
2022/05/05 03:13:38;;;;;;;11.23;6.93;;;7.30;99.90;;;;;;5112268;28;20093;-66
2022/05/05 03:16:04;;;;;;;14.73;7.32;;;7.20;99.90;;;;;;5093895;28;20122;-65
2022/05/05 03:18:30;;;;;;;13.43;8.05;;;7.20;99.90;;;;;;5112213;28;20039;-67
2022/05/05 03:20:55;;;;;;;12.25;7.15;;;7.20;99.90;;;;;;5111705;28;20050;-65
2022/05/05 03:23:21;;;;;;;17.40;8.40;;;7.10;99.90;;;;;;5112231;28;20504;-65
2022/05/05 03:25:46;;;;;;;11.43;7.13;;;7.10;99.90;;;;;;5112265;28;20071;-66
2022/05/05 03:28:13;;;;;;;15.75;8.32;;;7.10;99.90;;;;;;5093883;28;20042;-66
2022/05/05 03:30:40;;;;;;;15.15;7.65;;;7.00;99.90;;;;;;5111879;28;20043;-66
2022/05/05 03:33:06;;;;;;;13.95;7.70;;;6.90;99.90;;;;;;5112329;28;20344;-66
2022/05/05 03:35:32;;;;;;;15.60;7.45;;;7.00;99.90;;;;;;5111859;28;20491;-66
2022/05/05 03:37:57;;;;;;;16.17;8.18;;;7.00;99.90;;;;;;5111029;28;20039;-66
2022/05/05 03:40:23;;;;;;;12.63;7.68;;;7.10;99.90;;;;;;5111098;28;20126;-66
2022/05/05 03:42:48;;;;;;;11.13;7.53;;;7.10;99.90;;;;;;5111420;28;20040;-66
2022/05/05 03:45:14;;;;;;;12.93;7.70;;;7.10;99.90;;;;;;5111636;28;20509;-65
2022/05/05 03:47:39;;;;;;;20.77;9.20;;;7.00;99.90;;;;;;5093566;28;20045;-65
2022/05/05 03:50:06;;;;;;;14.40;8.77;;;6.90;99.90;;;;;;5111584;28;20376;-65
2022/05/05 03:52:31;;;;;;;14.23;7.85;;;6.80;99.90;;;;;;5110413;28;20329;-65
2022/05/05 03:54:57;;;;;;;13.40;7.38;;;6.80;99.90;;;;;;5109275;28;20071;-66
2022/05/05 03:57:22;;;;;;;14.15;7.70;;;6.80;99.90;;;;;;5110227;28;20499;-65
2022/05/05 03:59:48;;;;;;;19.80;8.23;;;6.90;99.90;;;;;;5111218;28;20050;-66
2022/05/05 04:02:13;;;;;;;13.88;7.97;;;6.80;99.90;;;;;;5111207;28;20047;-66
2022/05/05 04:04:39;;;;;;;16.50;8.40;;;6.80;99.90;;;;;;5110711;28;20094;-66
2022/05/05 04:07:04;;;;;;;13.80;8.60;;;6.80;99.90;;;;;;5110768;28;20043;-64
2022/05/05 04:09:30;;;;;;;13.48;8.90;;;6.80;99.90;;;;;;5111491;28;20193;-66
2022/05/05 04:11:56;;;;;;;20.88;9.20;;;6.80;99.90;;;;;;5111502;28;20122;-65
2022/05/05 04:14:21;;;;;;;15.70;8.60;;;6.70;99.90;;;;;;5111405;28;20047;-67
2022/05/05 04:16:47;;;;;;;14.32;7.93;;;6.80;99.90;;;;;;5111225;28;20047;-65
2022/05/05 04:19:12;;;;;;;13.52;7.93;;;6.90;99.90;;;;;;5111310;28;20051;-66
2022/05/05 04:21:38;;;;;;;13.07;8.00;;;6.90;99.90;;;;;;5111366;28;20036;-65
2022/05/05 04:24:04;;;;;;;13.25;7.60;;;6.90;99.90;;;;;;5111453;28;20118;-65
2022/05/05 04:26:29;;;;;;;11.00;7.80;;;7.00;99.90;;;;;;5093242;28;20448;-65
2022/05/05 04:28:57;;;;;;;15.32;7.97;;;7.00;99.90;;;;;;5092814;28;20122;-65
2022/05/05 04:31:23;;;;;;;12.85;7.88;;;7.00;99.90;;;;;;5092864;28;20038;-65
2022/05/05 04:33:49;;;;;;;12.27;7.30;;;6.90;99.90;;;;;;5111320;28;20114;-64
2022/05/05 04:36:15;;;;;;;15.20;9.40;;;7.00;99.90;;;;;;5110490;28;20119;-64
2022/05/05 04:38:40;;;;;;;16.10;8.90;;;7.10;99.90;;;;;;5091906;28;20116;-65
2022/05/05 04:41:06;;;;;;;20.73;9.18;;;7.20;99.90;;;;;;5109239;28;20031;-66
2022/05/05 04:43:32;;;;;;;17.65;9.25;;;7.30;99.90;;;;;;5110299;28;20453;-65
2022/05/05 04:45:57;;;;;;;23.33;9.27;;;7.30;99.90;;;;;;5093020;28;20776;-65
2022/05/05 04:48:23;;;;;;;19.38;9.52;;;7.40;99.90;;;;;;5114630;28;20035;-66
2022/05/05 04:50:49;;;;;;;17.42;11.25;;;7.30;99.90;;;;;;5114845;28;20047;-66
2022/05/05 04:53:14;;;;;;;20.48;10.43;;;7.40;99.90;;;;;;5115129;28;20111;-66
2022/05/05 04:55:40;;;;;;;18.38;9.25;;;7.40;99.90;;;;;;5115203;28;20070;-65
2022/05/05 04:58:05;;;;;;;19.10;10.00;;;7.50;99.90;;;;;;5114084;28;20039;-65
2022/05/05 05:00:31;;;;;;;22.77;10.45;;;7.50;99.90;;;;;;5114740;28;20126;-66
2022/05/05 05:02:57;;;;;;;15.23;10.05;;;7.50;99.90;;;;;;5115051;28;20048;-66
2022/05/05 05:05:23;;;;;;;14.38;9.43;;;7.60;99.90;;;;;;5115185;28;20487;-65
2022/05/05 05:07:48;;;;;;;19.95;10.15;;;7.50;99.90;;;;;;5114977;28;20053;-66
2022/05/05 05:10:14;;;;;;;15.63;9.02;;;7.60;99.90;;;;;;5114574;28;20034;-65
2022/05/05 05:12:40;;;;;;;19.50;9.27;;;7.70;99.90;;;;;;5114724;28;20040;-65
2022/05/05 05:15:06;;;;;;;15.70;9.30;;;7.70;99.90;;;;;;5114688;28;20123;-66
2022/05/05 05:17:32;;;;;;;17.92;9.30;;;7.70;99.90;;;;;;5114950;28;20483;-66
2022/05/05 05:19:58;;;;;;;18.38;9.68;;;7.70;99.90;;;;;;5114353;28;20108;-65
2022/05/05 05:22:23;;;;;;;19.40;9.93;;;7.70;99.90;;;;;;5114701;28;20407;-66
2022/05/05 05:24:49;;;;;;;19.10;9.52;;;7.70;99.90;;;;;;5114758;28;20043;-66
2022/05/05 05:27:14;;;;;;;14.88;10.02;;;7.80;99.90;;;;;;5113653;28;20035;-66
2022/05/05 05:29:40;;;;;;;23.77;11.23;;;7.80;99.90;;;;;;5096000;28;20076;-66
2022/05/05 05:32:06;;;;;;;17.27;9.73;;;7.80;99.90;;;;;;5114541;28;20122;-66
2022/05/05 05:34:31;;;;;;;22.13;12.65;;;7.90;99.90;;;;;;5114565;28;20036;-66
2022/05/05 05:36:57;;;;;;;20.80;10.25;;;8.00;99.90;;;;;;5114348;28;20169;-66
2022/05/05 05:39:23;;;;;;;19.17;10.40;;;8.10;99.90;;;;;;5114140;28;20509;-66
2022/05/05 05:41:49;;;;;;;15.80;10.15;;;8.10;99.90;;;;;;5114081;28;20039;-65
2022/05/05 05:44:14;;;;;;;16.75;10.63;;;8.20;99.90;;;;;;5113753;28;20050;-65
2022/05/05 05:46:40;;;;;;;22.27;11.63;;;8.20;99.90;;;;;;5113816;28;20410;-67
2022/05/05 05:49:05;;;;;;;20.90;10.82;;;8.30;99.90;;;;;;5113527;28;20511;-65
2022/05/05 05:51:32;;;;;;;18.35;11.40;;;8.50;99.90;;;;;;5113121;28;20043;-66
2022/05/05 05:53:57;;;;;;;22.90;10.70;;;8.60;99.90;;;;;;5114210;28;20043;-66
2022/05/05 05:56:24;;;;;;;25.77;12.38;;;8.60;99.90;;;;;;5113775;28;20039;-66
2022/05/05 05:58:49;;;;;;;21.35;12.98;;;8.70;99.90;;;;;;5113353;28;20114;-65
2022/05/05 06:01:15;;;;;;;15.93;10.88;;;8.80;99.90;;;;;;5114023;28;20127;-66
2022/05/05 06:03:56;;;;;;;24.20;11.98;;;8.90;99.90;;;;;;5113972;28;20038;-66
2022/05/05 06:06:23;;;;;;;21.88;11.00;;;9.00;99.90;;;;;;5113598;28;20773;-65
2022/05/05 06:08:49;;;;;;;22.25;11.55;;;9.20;99.90;;;;;;5095299;28;20100;-66
2022/05/05 06:11:17;;;;;;;17.63;10.98;;;9.40;99.90;;;;;;5106846;28;20448;-65
2022/05/05 06:13:43;;;;;;;16.90;10.13;;;9.60;99.90;;;;;;5095781;28;20510;-66
2022/05/05 06:16:10;;;;;;;18.63;11.75;;;9.90;99.90;;;;;;5091884;28;20064;-67
2022/05/05 06:18:39;;;;;;;19.10;10.63;;;10.10;99.90;;;;;;5092478;28;20071;-66
2022/05/05 06:21:05;;;;;;;21.10;11.45;;;10.20;99.90;;;;;;5092350;28;20040;-66
2022/05/05 06:23:31;;;;;;;19.17;10.77;;;10.30;99.90;;;;;;5074034;28;20576;-66
2022/05/05 06:25:57;;;;;;;18.92;10.57;;;10.50;99.90;;;;;;5093214;28;20127;-66
2022/05/05 06:28:22;;;;;;;19.55;11.80;;;10.50;99.90;;;;;;5092864;28;20044;-66
2022/05/05 06:30:48;;;;;;;19.30;9.60;;;10.60;99.90;;;;;;5093053;28;20043;-65
2022/05/05 06:33:13;;;;;;;24.48;11.50;;;10.90;99.90;;;;;;5092772;28;20040;-65
2022/05/05 06:35:39;;;;;;;20.90;9.88;;;11.00;99.90;;;;;;5092920;28;20040;-66
2022/05/05 06:38:05;;;;;;;17.92;9.98;;;11.10;99.90;;;;;;5092809;28;20044;-65
2022/05/05 06:40:31;;;;;;;16.80;9.68;;;11.30;99.90;;;;;;5091799;28;20035;-65
2022/05/05 06:42:56;;;;;;;20.98;9.98;;;11.50;99.90;;;;;;5092552;28;20036;-65
2022/05/05 06:45:22;;;;;;;22.40;10.00;;;11.70;99.90;;;;;;5092668;28;20520;-65
2022/05/05 06:47:48;;;;;;;25.23;10.07;;;11.80;99.90;;;;;;5092760;28;20032;-65
2022/05/05 06:50:16;;;;;;;25.75;10.52;;;12.00;99.90;;;;;;5091298;28;20099;-65
2022/05/05 06:52:42;;;;;;;21.30;10.15;;;12.00;99.90;;;;;;5092126;28;20507;-66
2022/05/05 06:55:09;;;;;;;19.73;11.32;;;12.10;99.90;;;;;;5091260;28;20044;-65
2022/05/05 06:57:34;;;;;;;19.13;9.20;;;12.20;99.90;;;;;;5092146;28;20125;-66
2022/05/05 07:00:00;;;;;;;17.60;9.20;;;12.40;99.90;;;;;;5073436;28;20052;-66
2022/05/05 07:02:25;;;;;;;15.15;9.77;;;12.50;99.90;;;;;;5092265;28;20488;-65
2022/05/05 07:07:35;;;;;;;18.23;9.38;;;12.70;99.90;;;;;;5091635;28;20044;-65
2022/05/05 07:12:45;;;;;;;21.17;9.13;;;12.80;99.90;;;;;;5091188;28;20040;-65
2022/05/05 07:15:12;;;;;;;15.02;8.48;;;12.80;99.90;;;;;;5092097;28;20496;-66
2022/05/05 07:17:37;;;;;;;18.33;8.32;;;13.00;99.90;;;;;;5091909;28;20048;-65
2022/05/05 07:20:03;;;;;;;15.20;7.68;;;13.10;99.90;;;;;;5091739;28;20078;-65
2022/05/05 07:22:29;;;;;;;15.00;8.15;;;13.20;99.90;;;;;;5091768;28;20044;-66
2022/05/05 07:24:54;;;;;;;16.98;9.00;;;13.30;99.90;;;;;;5073568;28;20036;-66
2022/05/05 07:27:20;;;;;;;12.88;7.57;;;13.30;99.90;;;;;;5091932;28;20039;-65
2022/05/05 07:29:45;;;;;;;12.63;7.85;;;13.40;99.90;;;;;;5091711;28;20063;-65
2022/05/05 07:32:11;;;;;;;16.35;7.30;;;13.60;99.90;;;;;;5090806;28;20495;-66
2022/05/05 07:34:38;;;;;;;18.35;7.35;;;13.70;99.90;;;;;;5091610;28;20049;-66
2022/05/05 07:37:04;;;;;;;14.65;7.47;;;13.70;99.90;;;;;;5091319;28;20571;-66
2022/05/05 07:39:29;;;;;;;14.88;7.00;;;13.90;99.90;;;;;;5090788;28;20115;-66
2022/05/05 07:41:56;;;;;;;17.30;7.35;;;13.90;99.90;;;;;;5090341;28;20044;-66
2022/05/05 07:44:21;;;;;;;20.23;7.68;;;14.00;99.90;;;;;;5091537;28;20043;-65
2022/05/05 07:46:47;;;;;;;17.35;6.35;;;14.10;99.90;;;;;;5091372;28;20048;-66
2022/05/05 07:49:13;;;;;;;10.13;6.43;;;13.90;99.90;;;;;;5072910;28;20079;-66
2022/05/05 07:51:39;;;;;;;13.25;5.28;;;13.90;99.90;;;;;;5091714;28;20081;-65
2022/05/05 07:56:51;;;;;;;11.82;5.68;;;14.10;99.90;;;;;;5091090;28;20075;-66
2022/05/05 07:59:18;;;;;;;14.43;6.25;;;14.10;99.90;;;;;;5100584;28;21340;-66
2022/05/05 08:01:43;;;;;;;13.05;5.95;;;14.30;99.90;;;;;;5100942;28;20043;-66
2022/05/05 08:04:09;;;;;;;16.50;5.90;;;14.40;99.90;;;;;;5099683;28;20040;-66
2022/05/05 08:06:35;;;;;;;10.65;5.45;;;14.40;99.90;;;;;;5100973;28;20823;-66
2022/05/05 08:09:00;;;;;;;12.45;5.60;;;14.50;99.90;;;;;;5100357;28;20491;-66
2022/05/05 08:11:28;;;;;;;12.88;4.45;;;14.60;99.90;;;;;;5100172;28;20070;-66
2022/05/05 08:13:54;;;;;;;11.48;4.38;;;14.80;99.90;;;;;;5102175;28;20094;-67
2022/05/05 08:16:20;;;;;;;10.73;4.68;;;14.80;99.90;;;;;;5098523;28;20035;-67
2022/05/05 08:18:46;;;;;;;16.73;4.97;;;14.90;99.90;;;;;;5095723;28;20071;-70
2022/05/05 08:21:11;;;;;;;10.63;4.93;;;14.90;99.90;;;;;;5071563;28;20078;-72
2022/05/05 08:23:38;;;;;;;13.77;5.43;;;14.90;99.90;;;;;;5072144;28;20576;-70
2022/05/05 08:28:49;;;;;;;7.50;4.03;;;14.90;99.90;;;;;;5088860;28;20040;-70
2022/05/05 08:31:15;;;;;;;7.68;4.63;;;15.00;99.90;;;;;;5070883;28;20036;-70
2022/05/05 08:33:41;;;;;;;12.43;4.72;;;15.00;99.90;;;;;;5089090;28;20065;-70
2022/05/05 08:36:07;;;;;;;8.55;5.03;;;15.10;99.90;;;;;;5089057;28;20039;-70
2022/05/05 08:38:33;;;;;;;12.23;5.13;;;15.00;99.90;;;;;;5088786;28;20214;-71
2022/05/05 08:40:59;;;;;;;13.63;5.88;;;15.00;99.90;;;;;;5089709;28;20484;-70
2022/05/05 08:43:25;;;;;;;9.98;5.85;;;15.00;99.90;;;;;;5072490;28;20070;-70
2022/05/05 08:45:53;;;;;;;10.27;5.47;;;15.10;99.90;;;;;;5072902;28;20039;-71
2022/05/05 08:48:19;;;;;;;11.27;5.70;;;15.20;99.90;;;;;;5090857;28;20040;-71
2022/05/05 08:50:46;;;;;;;9.05;5.20;;;15.30;99.90;;;;;;5072411;28;20043;-70
2022/05/05 08:53:15;;;;;;;8.52;5.40;;;15.30;99.90;;;;;;5072590;28;20055;-70
2022/05/05 08:55:43;;;;;;;11.95;5.75;;;15.40;99.90;;;;;;5090591;28;20077;-70
2022/05/05 08:58:09;;;;;;;12.05;6.13;;;15.40;99.90;;;;;;5090870;28;20120;-70
2022/05/05 09:00:34;;;;;;;9.38;5.57;;;15.30;99.90;;;;;;5072468;28;20118;-69
2022/05/05 09:03:00;;;;;;;9.07;5.30;;;15.40;99.90;;;;;;5072488;28;20051;-70
2022/05/05 09:05:45;;;;;;;12.32;6.47;;;15.50;99.90;;;;;;5090628;28;20040;-69
2022/05/05 09:08:33;;;;;;;12.00;6.32;;;15.50;99.60;;;;;;5090483;28;20364;-70
2022/05/05 09:11:03;;;;;;;9.85;5.93;;;15.50;99.90;;;;;;5090119;28;20086;-70
2022/05/05 09:13:34;;;;;;;11.77;5.53;;;15.60;99.90;;;;;;5090620;28;20138;-70
2022/05/05 09:16:03;;;;;;;9.52;4.93;;;15.60;99.90;;;;;;5090535;28;20048;-70
2022/05/05 09:18:33;;;;;;;11.90;5.80;;;15.80;99.90;;;;;;5072471;28;20676;-70
2022/05/05 09:21:03;;;;;;;11.43;5.57;;;15.70;99.90;;;;;;5090649;28;20051;-70
2022/05/05 09:26:28;;;;;;;11.88;6.53;;;15.70;98.00;;;;;;5072220;28;20105;-70
2022/05/05 09:28:54;;;;;;;12.75;6.00;;;15.70;99.90;;;;;;5072452;28;20043;-70
2022/05/05 09:31:21;;;;;;;12.90;6.22;;;15.90;99.90;;;;;;5072654;28;20052;-70
2022/05/05 09:33:47;;;;;;;10.88;5.78;;;16.00;99.90;;;;;;5075018;28;20051;-68
2022/05/05 09:36:15;;;;;;;9.13;3.70;;;16.00;99.90;;;;;;5094092;28;20040;-70
2022/05/05 09:39:00;;;;;;;9.65;5.20;;;16.40;99.90;;;;;;5093823;28;20105;-68
2022/05/05 09:41:30;;;;;;;11.40;5.32;;;16.60;99.90;;;;;;5094209;28;20042;-68
2022/05/05 09:43:57;;;;;;;10.45;5.50;;;16.70;99.90;;;;;;5093771;28;20054;-69
2022/05/05 09:46:23;;;;;;;7.15;3.88;;;16.70;99.30;;;;;;5093840;28;20090;-70
2022/05/05 09:48:52;;;;;;;14.63;5.78;;;16.90;99.90;;;;;;5093429;28;20044;-68
2022/05/05 09:51:18;;;;;;;10.80;5.45;;;17.00;98.30;;;;;;5093276;28;20051;-69
2022/05/05 09:59:20;;;;;;;9.90;5.88;;;17.00;95.90;;;;;;5091981;28;20134;-69
2022/05/05 10:01:50;;;;;;;10.15;4.80;;;17.00;96.90;;;;;;5075389;28;20051;-68
2022/05/05 10:04:19;;;;;;;11.63;6.00;;;17.10;97.00;;;;;;5093171;28;20046;-68
2022/05/05 10:06:47;;;;;;;9.80;5.90;;;17.20;95.80;;;;;;5092858;28;20055;-69
2022/05/05 10:09:14;;;;;;;11.73;5.93;;;17.10;92.80;;;;;;5073984;28;20040;-68
2022/05/05 10:11:41;;;;;;;12.50;5.65;;;16.80;95.90;;;;;;5092477;28;20089;-68
2022/05/05 10:14:08;;;;;;;7.10;5.35;;;17.10;96.00;;;;;;5074544;28;20165;-68
2022/05/05 10:16:36;;;;;;;9.32;5.40;;;17.20;95.60;;;;;;5092717;28;20121;-68
2022/05/05 10:19:03;;;;;;;13.85;6.10;;;17.40;96.40;;;;;;5074487;28;20410;-68
2022/05/05 10:21:51;;;;;;;11.40;5.50;;;17.40;93.80;;;;;;5093534;28;20040;-68
2022/05/05 10:24:28;;;;;;;10.60;5.13;;;17.50;91.10;;;;;;5093895;28;20040;-68
2022/05/05 10:26:55;;;;;;;8.57;5.35;;;17.60;93.10;;;;;;5075781;28;20072;-68
2022/05/05 10:29:47;;;;;;;11.18;5.70;;;17.70;93.60;;;;;;5074980;28;20040;-68
2022/05/05 10:32:16;;;;;;;10.05;5.47;;;17.60;91.70;;;;;;5097808;28;20450;-68
2022/05/05 10:34:51;;;;;;;9.73;5.15;;;17.70;92.00;;;;;;5103140;28;20039;-69
2022/05/05 10:37:20;;;;;;;10.23;5.03;;;17.80;91.90;;;;;;5086109;28;20036;-68
2022/05/05 10:40:07;;;;;;;11.05;4.95;;;17.80;91.60;;;;;;5094512;28;20039;-69
2022/05/05 10:42:41;;;;;;;10.55;6.13;;;18.00;93.10;;;;;;5093002;28;20407;-68
2022/05/05 10:45:26;;;;;;;12.40;7.18;;;18.10;90.00;;;;;;5091763;28;20036;-68
2022/05/05 10:47:55;;;;;;;13.32;6.32;;;18.20;89.40;;;;;;5092892;28;20119;-68
2022/05/05 10:50:50;;;;;;;14.50;5.80;;;18.00;83.90;;;;;;5073697;28;20101;-68
2022/05/05 10:53:26;;;;;;;10.98;5.25;;;17.90;87.10;;;;;;5092568;28;20400;-68
2022/05/05 10:55:51;;;;;;;12.18;5.65;;;18.00;88.10;;;;;;5074237;28;20115;-68
2022/05/05 10:58:58;;;;;;;12.55;6.82;;;18.00;89.60;;;;;;5092643;28;20564;-69
2022/05/05 11:01:25;;;;;;;10.35;5.45;;;18.00;84.80;;;;;;5065030;28;20596;-68
2022/05/05 11:04:05;;;;;;;12.48;6.45;;;17.90;90.30;;;;;;5092507;28;20400;-68
2022/05/05 11:06:32;;;;;;;10.65;4.55;;;18.20;87.60;;;;;;5074117;28;20071;-68
2022/05/05 11:08:58;;;;;;;9.18;5.93;;;18.30;85.10;;;;;;5092243;28;20070;-68
2022/05/05 11:11:43;;;;;;;10.00;5.65;;;18.20;87.70;;;;;;5079245;28;20036;-68
2022/05/05 11:23:09;;;;;;;9.07;4.80;;;18.40;81.90;;;;;;5091297;28;20139;-69
2022/05/05 11:25:41;;;;;;;6.95;5.20;;;18.50;79.90;;;;;;5073505;28;20050;-68
2022/05/05 11:28:08;;;;;;;9.77;5.25;;;18.50;79.80;;;;;;5073078;28;20046;-68
2022/05/05 11:30:35;;;;;;;10.52;5.53;;;18.40;80.10;;;;;;5091385;28;20058;-68
2022/05/05 11:33:01;;;;;;;8.13;5.20;;;18.30;79.60;;;;;;5091697;28;20036;-68
2022/05/05 11:35:26;;;;;;;9.23;4.78;;;18.20;80.70;;;;;;5092170;28;20119;-68
2022/05/05 11:37:52;;;;;;;9.38;5.45;;;18.20;83.10;;;;;;5073628;28;20043;-68
2022/05/05 11:40:17;;;;;;;11.10;5.10;;;18.40;89.30;;;;;;5091714;28;20040;-69
2022/05/05 11:45:28;;;;;;;10.25;5.05;;;18.60;86.30;;;;;;5091009;28;20075;-68
2022/05/05 11:47:55;;;;;;;9.88;5.35;;;18.80;81.60;;;;;;5091646;28;20446;-68
2022/05/05 11:50:21;;;;;;;12.43;5.25;;;18.80;83.70;;;;;;5072713;28;20048;-68
2022/05/05 11:52:46;;;;;;;8.38;4.97;;;18.80;81.10;;;;;;5091436;28;20050;-68
2022/05/05 11:55:13;;;;;;;10.35;5.50;;;18.80;79.10;;;;;;5090679;28;20610;-69
2022/05/05 11:57:40;;;;;;;9.40;4.57;;;18.60;74.90;;;;;;5073133;28;20036;-68
2022/05/05 12:02:57;;;;;;;9.93;5.53;;;18.70;73.00;;;;;;5090599;28;20412;-68
2022/05/05 12:05:24;;;;;;;12.07;5.32;;;18.90;85.10;;;;;;5091618;28;20036;-68
2022/05/05 12:07:51;;;;;;;7.70;4.88;;;18.90;80.20;;;;;;5090764;28;20032;-68
2022/05/05 12:10:18;;;;;;;11.23;5.13;;;18.90;80.70;;;;;;5090827;28;20111;-68
2022/05/05 12:12:46;;;;;;;10.15;5.47;;;19.00;80.80;;;;;;5090466;28;20048;-68
2022/05/05 12:15:13;;;;;;;11.85;6.57;;;19.00;80.10;;;;;;5090985;28;20128;-68
2022/05/05 12:17:42;;;;;;;11.40;5.78;;;18.90;74.70;;;;;;5091460;28;20078;-68
2022/05/05 12:20:15;;;;;;;14.45;5.68;;;18.70;75.70;;;;;;5090566;28;20130;-68
2022/05/05 12:22:42;;;;;;;10.75;5.82;;;18.70;75.30;;;;;;5072330;28;20036;-68
2022/05/05 12:25:17;;;;;;;10.68;5.38;;;18.80;80.30;;;;;;5091121;28;20093;-68
2022/05/05 12:27:44;;;;;;;8.30;5.43;;;19.00;77.20;;;;;;5090564;28;20439;-69
2022/05/05 12:30:12;;;;;;;11.10;5.65;;;19.10;78.00;;;;;;5089943;28;20115;-68
2022/05/05 12:32:50;;;;;;;15.57;6.85;;;19.10;77.60;;;;;;5072800;28;20056;-68
2022/05/05 12:35:27;;;;;;;7.63;5.43;;;19.20;75.00;;;;;;5072771;28;20044;-68
2022/05/05 12:37:57;;;;;;;8.00;5.72;;;19.20;74.20;;;;;;5090133;28;20044;-69
2022/05/05 12:40:22;;;;;;;9.25;4.47;;;19.20;73.30;;;;;;5096695;28;20044;-69
2022/05/05 12:42:48;;;;;;;18.42;5.85;;;19.20;77.70;;;;;;5101142;28;20084;-68
2022/05/05 12:45:29;;;;;;;7.97;4.93;;;19.30;78.80;;;;;;5109569;28;20115;-67
2022/05/05 12:47:58;;;;;;;8.45;5.25;;;19.40;74.30;;;;;;5110034;28;20039;-69
2022/05/05 12:50:47;;;;;;;14.70;5.00;;;19.40;76.60;;;;;;5110900;28;20398;-68
2022/05/05 13:01:37;;;;;;;6.47;4.32;;;19.70;70.60;;;;;;5072839;28;20424;-69
2022/05/05 13:04:12;;;;;;;9.05;4.13;;;19.80;72.60;;;;;;5090680;28;20055;-69
2022/05/05 13:06:39;;;;;;;6.45;3.95;;;19.80;69.80;;;;;;5072600;28;20050;-68
2022/05/05 13:09:08;;;;;;;8.35;4.05;;;19.80;68.90;;;;;;5094020;28;20071;-68
2022/05/05 13:11:34;;;;;;;9.88;4.72;;;20.00;74.10;;;;;;5094924;28;20036;-69
2022/05/05 13:14:01;;;;;;;5.10;4.07;;;20.30;64.80;;;;;;5093419;28;20082;-68
2022/05/05 13:16:27;;;;;;;7.32;3.72;;;20.10;64.20;;;;;;5094649;28;20051;-68
2022/05/05 13:18:53;;;;;;;7.63;3.92;;;20.30;63.40;;;;;;5094310;28;20044;-68
2022/05/05 13:21:18;;;;;;;8.68;3.80;;;20.10;60.90;;;;;;5094868;28;20186;-68
2022/05/05 13:23:44;;;;;;;7.47;4.00;;;20.10;61.90;;;;;;5094669;28;20085;-68
2022/05/05 13:26:11;;;;;;;7.90;3.30;;;20.30;62.10;;;;;;5094621;28;20489;-68
2022/05/05 13:28:37;;;;;;;5.55;3.80;;;20.40;61.80;;;;;;5094233;28;20109;-68
2022/05/05 13:31:03;;;;;;;6.97;3.75;;;20.30;59.50;;;;;;5094420;28;20042;-68
2022/05/05 13:33:29;;;;;;;5.80;3.70;;;20.20;59.70;;;;;;5094361;28;20496;-68
2022/05/05 13:35:54;;;;;;;7.53;3.55;;;20.30;61.30;;;;;;5094169;28;20500;-68
2022/05/05 13:38:23;;;;;;;5.15;3.40;;;20.20;59.70;;;;;;5094290;28;20036;-69